< < Back
Terminal Aerodrome Forecast


Current Version              Previous Versions:   1  2  3  4  5  6  7  8  9  

Terminal Aerodrome Forecast

406
FTUS42 KMLB 232321
TAFDAB
TAF
KDAB 232321Z 2400/2424 06011KT P6SM SCT018 SCT250
     FM240200 04005KT P6SM FEW040 SCT250
     FM241400 05011KT P6SM VCSH SCT035 SCT250
     FM241800 05014G20KT P6SM VCSH SCT040 BKN120=

Latest METAR

493
SAUS80 KWBC 240200 CCA
MTRDAB
METAR KDAB 240153Z 04008KT 10SM FEW017 FEW150 SCT250 29/26 A3014 RMK AO2
SLP205 T02890256


USA.gov is the U.S. government's official web portal to all federal, state and local government web resources and services.